Time;durP1;ratioP1;P1;durP2;ratioP2;P2;SDS_P1;SDS_P2;PMS_P1;PMS_P2;Temp;Humidity;BMP_temperature;BMP_pressure;BME280_temperature;BME280_humidity;BME280_pressure;Samples;Min_cycle;Max_cycle;Signal;HPM_P1;HPM_P2
2022/04/04 00:00:16;;;;;;;7.88;4.80;;;3.80;19.40;;;;;;5067531;28;20195;-77
2022/04/04 00:02:45;;;;;;;7.05;4.47;;;3.70;19.40;;;;;;5056816;28;20230;-78
2022/04/04 00:05:13;;;;;;;4.75;4.07;;;3.90;19.20;;;;;;5058103;28;20248;-79
2022/04/04 00:07:42;;;;;;;6.28;3.85;;;3.60;18.90;;;;;;5068803;28;20588;-78
2022/04/04 00:10:12;;;;;;;9.52;4.90;;;3.70;18.00;;;;;;5068704;28;20207;-79
2022/04/04 00:12:41;;;;;;;9.27;4.72;;;3.70;20.20;;;;;;5061254;28;20198;-79
2022/04/04 00:15:11;;;;;;;5.47;4.93;;;3.70;17.80;;;;;;5066890;28;20199;-80
2022/04/04 00:17:39;;;;;;;5.18;3.58;;;3.70;18.70;;;;;;5068885;28;20649;-77
2022/04/04 00:20:10;;;;;;;7.88;4.10;;;3.70;17.30;;;;;;5064503;28;20233;-79
2022/04/04 00:22:38;;;;;;;5.25;4.25;;;3.70;17.40;;;;;;5062648;28;20230;-78
2022/04/04 00:25:07;;;;;;;4.20;3.80;;;3.50;17.10;;;;;;5064665;28;20211;-78
2022/04/04 00:27:37;;;;;;;4.25;3.85;;;3.50;17.20;;;;;;5064128;28;20210;-80
2022/04/04 00:30:07;;;;;;;5.75;4.45;;;3.60;17.60;;;;;;5063895;28;20207;-80
2022/04/04 00:32:36;;;;;;;4.10;3.33;;;3.60;15.70;;;;;;5060353;28;20213;-81
2022/04/04 00:35:04;;;;;;;6.85;4.60;;;3.50;18.00;;;;;;5060935;28;20200;-79
2022/04/04 00:37:34;;;;;;;5.95;3.90;;;3.60;16.60;;;;;;5062313;28;20209;-80
2022/04/04 00:40:02;;;;;;;8.23;4.90;;;3.70;16.20;;;;;;5061747;28;20201;-80
2022/04/04 00:42:31;;;;;;;8.93;4.30;;;3.60;16.60;;;;;;5060809;28;20223;-79
2022/04/04 00:45:01;;;;;;;6.40;4.72;;;3.50;16.90;;;;;;5061758;28;20748;-79
2022/04/04 00:47:29;;;;;;;8.25;4.32;;;3.50;15.60;;;;;;5061856;28;20205;-78
2022/04/04 00:49:57;;;;;;;6.90;4.50;;;3.40;15.20;;;;;;5060712;28;20217;-79
2022/04/04 00:52:25;;;;;;;8.65;4.63;;;3.40;14.20;;;;;;5065249;28;20212;-77
2022/04/04 00:54:54;;;;;;;11.98;5.97;;;3.50;15.60;;;;;;5062910;28;20219;-79
2022/04/04 00:57:22;;;;;;;6.47;4.72;;;3.70;17.40;;;;;;5066144;28;20197;-78
2022/04/04 00:59:50;;;;;;;5.50;4.28;;;3.50;15.50;;;;;;5064367;28;20200;-79
2022/04/04 01:02:20;;;;;;;6.63;4.97;;;3.50;15.90;;;;;;5066876;28;20254;-79
2022/04/04 01:04:48;;;;;;;4.85;4.15;;;3.50;15.70;;;;;;5064688;28;20213;-78
2022/04/04 01:07:16;;;;;;;6.30;4.43;;;3.40;14.40;;;;;;5063362;28;20198;-79
2022/04/04 01:09:44;;;;;;;7.10;5.50;;;3.40;14.80;;;;;;5063585;28;20195;-78
2022/04/04 01:12:14;;;;;;;4.75;4.35;;;3.50;14.50;;;;;;5056048;28;20750;-77
2022/04/04 01:14:46;;;;;;;5.90;3.85;;;3.40;13.10;;;;;;5067652;28;20747;-79
2022/04/04 01:17:15;;;;;;;6.38;4.00;;;3.70;13.00;;;;;;5058909;28;20665;-79
2022/04/04 01:19:45;;;;;;;6.85;4.35;;;3.40;12.60;;;;;;5063598;28;20204;-79
2022/04/04 01:22:15;;;;;;;6.28;4.35;;;3.70;14.00;;;;;;5067447;28;20690;-80
2022/04/04 01:24:45;;;;;;;6.30;4.20;;;3.40;11.60;;;;;;5063945;28;20270;-80
2022/04/04 01:27:13;;;;;;;5.03;4.10;;;3.30;12.20;;;;;;5066579;28;20201;-80
2022/04/04 01:29:41;;;;;;;4.70;4.30;;;3.30;11.40;;;;;;5066521;28;20618;-79
2022/04/04 01:32:10;;;;;;;3.90;3.47;;;3.30;11.50;;;;;;5069475;28;20236;-78
2022/04/04 01:34:38;;;;;;;5.50;4.97;;;3.20;11.40;;;;;;5067957;28;20296;-78
2022/04/04 01:37:06;;;;;;;4.15;3.85;;;3.50;12.10;;;;;;5073940;28;20193;-78
2022/04/04 01:39:35;;;;;;;5.15;3.90;;;3.20;11.80;;;;;;5073974;28;20206;-80
2022/04/04 01:42:06;;;;;;;6.53;4.57;;;3.10;11.00;;;;;;5074204;28;20224;-79
2022/04/04 01:44:34;;;;;;;5.88;3.92;;;3.10;9.80;;;;;;5067503;28;20287;-78
2022/04/04 01:47:02;;;;;;;5.93;4.05;;;3.30;12.60;;;;;;5062015;28;20201;-79
2022/04/04 01:49:30;;;;;;;5.15;4.10;;;3.10;9.20;;;;;;5070953;28;20569;-79
2022/04/04 01:51:58;;;;;;;5.45;4.15;;;3.40;10.30;;;;;;5070984;28;20218;-80
2022/04/04 01:54:26;;;;;;;6.57;3.92;;;3.10;8.70;;;;;;5064176;28;20193;-81
2022/04/04 01:56:54;;;;;;;6.25;3.88;;;3.10;8.00;;;;;;5066191;28;20679;-81
2022/04/04 01:59:24;;;;;;;4.32;3.92;;;3.00;9.40;;;;;;5068605;28;20198;-81
2022/04/04 02:01:52;;;;;;;6.00;4.07;;;3.10;7.90;;;;;;5069418;28;20219;-81
2022/04/04 02:04:21;;;;;;;4.35;3.95;;;2.90;7.90;;;;;;5071655;28;20267;-82
2022/04/04 02:06:49;;;;;;;5.55;4.43;;;2.90;8.80;;;;;;5067552;28;20193;-80
2022/04/04 02:09:17;;;;;;;6.05;3.25;;;2.90;7.90;;;;;;5064859;28;20194;-80
2022/04/04 02:11:47;;;;;;;6.13;4.53;;;2.90;8.50;;;;;;5070525;28;20225;-79
2022/04/04 02:14:16;;;;;;;5.63;4.05;;;2.90;7.00;;;;;;5068102;28;20283;-80
2022/04/04 02:16:46;;;;;;;4.28;3.55;;;3.00;9.50;;;;;;5065681;28;20197;-80
2022/04/04 02:19:16;;;;;;;5.32;4.05;;;2.90;10.70;;;;;;5072021;28;20198;-80
2022/04/04 02:21:44;;;;;;;6.63;3.75;;;2.80;8.30;;;;;;5070083;28;20222;-80
2022/04/04 02:24:12;;;;;;;4.88;4.38;;;2.90;9.00;;;;;;5061770;28;20238;-79
2022/04/04 02:26:41;;;;;;;4.57;4.15;;;2.80;12.20;;;;;;5067463;28;20200;-77
2022/04/04 02:29:09;;;;;;;6.55;3.85;;;2.70;13.30;;;;;;5065459;28;20288;-79
2022/04/04 02:31:38;;;;;;;4.50;3.90;;;2.80;11.10;;;;;;5067653;28;20231;-79
2022/04/04 02:34:07;;;;;;;4.43;3.80;;;3.00;13.30;;;;;;5070903;28;20640;-79
2022/04/04 02:36:36;;;;;;;6.18;4.68;;;3.00;7.60;;;;;;5072025;28;20289;-81
2022/04/04 02:39:04;;;;;;;4.45;4.03;;;2.80;9.10;;;;;;5065988;28;20273;-79
2022/04/04 02:41:32;;;;;;;6.20;4.18;;;2.80;5.90;;;;;;5071938;28;20769;-79
2022/04/04 02:44:00;;;;;;;6.45;4.20;;;2.80;4.40;;;;;;5065793;28;20221;-78
2022/04/04 02:46:29;;;;;;;4.72;3.65;;;2.70;5.60;;;;;;5068323;28;20738;-78
2022/04/04 02:48:57;;;;;;;4.13;3.60;;;2.70;4.70;;;;;;5068565;28;20203;-79
2022/04/04 02:51:26;;;;;;;7.15;4.47;;;2.70;4.60;;;;;;5065234;28;20213;-79
2022/04/04 02:53:54;;;;;;;5.25;4.10;;;2.70;3.90;;;;;;5067897;28;20194;-79
2022/04/04 02:56:30;;;;;;;5.40;4.32;;;2.70;4.30;;;;;;5069088;28;20256;-81
2022/04/04 02:59:02;;;;;;;4.20;3.30;;;2.70;2.20;;;;;;5072451;28;20260;-81
2022/04/04 03:01:31;;;;;;;5.60;4.05;;;2.60;2.00;;;;;;5070646;28;20573;-80
2022/04/04 03:03:59;;;;;;;4.28;3.83;;;2.60;2.30;;;;;;5062582;28;20197;-79
2022/04/04 03:06:29;;;;;;;4.75;4.32;;;2.60;2.30;;;;;;5069354;28;20707;-79
2022/04/04 03:08:58;;;;;;;4.82;3.40;;;2.80;2.50;;;;;;5064553;28;20193;-79
2022/04/04 03:11:26;;;;;;;4.20;3.60;;;2.50;3.20;;;;;;5063127;28;20720;-78
2022/04/04 03:13:54;;;;;;;4.45;3.40;;;2.50;4.00;;;;;;5061296;28;20780;-79
2022/04/04 03:16:22;;;;;;;4.85;4.35;;;2.60;4.30;;;;;;5066451;28;20201;-79
2022/04/04 03:18:51;;;;;;;4.93;3.60;;;2.60;5.00;;;;;;5065116;28;20248;-79
2022/04/04 03:21:19;;;;;;;5.35;4.55;;;2.90;4.90;;;;;;5065982;28;20246;-79
2022/04/04 03:23:49;;;;;;;5.38;4.00;;;2.60;4.50;;;;;;5065034;28;20200;-80
2022/04/04 03:26:17;;;;;;;11.35;5.07;;;2.50;3.70;;;;;;5058783;28;20223;-80
2022/04/04 03:28:46;;;;;;;4.93;4.53;;;2.50;3.60;;;;;;5066344;28;20201;-81
2022/04/04 03:31:14;;;;;;;4.85;3.97;;;2.50;2.30;;;;;;5067517;28;20555;-79
2022/04/04 03:33:44;;;;;;;5.28;4.45;;;2.50;2.70;;;;;;5065207;28;20601;-79
2022/04/04 03:36:12;;;;;;;5.50;4.50;;;2.50;1.00;;;;;;5060258;28;20258;-80
2022/04/04 03:38:40;;;;;;;6.47;4.45;;;2.50;1.10;;;;;;5064744;28;20197;-80
2022/04/04 03:41:10;;;;;;;6.35;3.78;;;2.70;1.30;;;;;;5061972;28;20209;-80
2022/04/04 03:43:39;;;;;;;6.30;5.03;;;2.40;1.00;;;;;;5063421;28;20209;-80
2022/04/04 03:46:07;;;;;;;5.90;5.00;;;2.50;2.80;;;;;;5066870;28;20235;-79
2022/04/04 03:48:35;;;;;;;6.93;4.15;;;2.70;1.90;;;;;;5065931;28;20604;-80
2022/04/04 03:51:04;;;;;;;4.45;3.58;;;2.30;1.60;;;;;;5068534;28;20218;-80
2022/04/04 03:53:32;;;;;;;5.53;4.45;;;2.40;1.00;;;;;;5065042;28;20291;-80
2022/04/04 03:56:00;;;;;;;5.13;4.25;;;2.40;1.00;;;;;;5060707;28;20190;-81
2022/04/04 03:58:29;;;;;;;4.47;3.42;;;2.40;1.10;;;;;;5063183;28;20195;-80
2022/04/04 04:00:58;;;;;;;4.93;4.38;;;2.40;1.00;;;;;;5067418;28;20230;-79
2022/04/04 04:03:26;;;;;;;5.13;4.25;;;2.30;1.00;;;;;;5054918;28;20199;-80
2022/04/04 04:06:11;;;;;;;4.82;4.32;;;2.40;1.00;;;;;;5067001;28;20221;-79
2022/04/04 04:08:41;;;;;;;5.32;3.63;;;2.60;1.00;;;;;;5067616;28;20202;-80
2022/04/04 04:11:09;;;;;;;7.75;5.20;;;2.40;1.00;;;;;;5058548;28;20225;-78
2022/04/04 04:13:40;;;;;;;5.03;3.92;;;2.30;1.00;;;;;;5056953;28;20197;-79
2022/04/04 04:16:09;;;;;;;4.88;3.88;;;2.30;1.00;;;;;;5065772;28;20190;-79
2022/04/04 04:18:38;;;;;;;5.25;4.75;;;2.30;1.00;;;;;;5060687;28;20202;-78
2022/04/04 04:21:07;;;;;;;6.65;4.95;;;2.30;1.00;;;;;;5061359;28;20229;-80
2022/04/04 04:23:41;;;;;;;6.75;3.47;;;2.20;1.00;;;;;;5060618;28;20194;-79
2022/04/04 04:26:13;;;;;;;5.20;3.55;;;2.30;1.00;;;;;;5059401;28;20221;-79
2022/04/04 04:28:44;;;;;;;7.60;4.30;;;2.20;1.00;;;;;;5064084;28;20564;-80
2022/04/04 04:31:12;;;;;;;5.70;3.83;;;2.50;1.00;;;;;;5067475;28;20661;-78
2022/04/04 04:33:40;;;;;;;4.78;3.60;;;2.10;1.00;;;;;;5062695;28;20254;-80
2022/04/04 04:36:08;;;;;;;6.40;4.88;;;2.00;1.00;;;;;;5060298;28;20438;-79
2022/04/04 04:38:37;;;;;;;5.50;4.70;;;2.00;1.00;;;;;;5056711;28;20211;-79
2022/04/04 04:41:05;;;;;;;5.63;4.03;;;1.90;1.00;;;;;;5064899;28;20241;-77
2022/04/04 04:43:33;;;;;;;6.47;3.83;;;1.90;1.00;;;;;;5066525;28;20208;-77
2022/04/04 04:46:02;;;;;;;10.48;4.60;;;1.90;1.00;;;;;;5062559;28;20215;-77
2022/04/04 04:48:31;;;;;;;8.00;4.65;;;2.00;1.00;;;;;;5058593;28;20202;-77
2022/04/04 04:50:59;;;;;;;5.22;4.78;;;2.00;1.00;;;;;;5056438;28;20603;-78
2022/04/04 04:53:27;;;;;;;4.68;3.53;;;1.90;1.00;;;;;;5053986;28;20195;-77
2022/04/04 04:55:55;;;;;;;6.82;4.72;;;1.90;1.00;;;;;;5061887;28;20785;-78
2022/04/04 04:58:23;;;;;;;5.57;4.25;;;1.90;1.00;;;;;;5067157;28;20251;-77
2022/04/04 05:00:52;;;;;;;4.32;3.92;;;1.90;1.00;;;;;;5065236;28;20231;-78
2022/04/04 05:03:28;;;;;;;4.30;3.50;;;2.00;1.00;;;;;;5058153;28;20308;-76
2022/04/04 05:05:56;;;;;;;4.28;3.88;;;2.00;1.00;;;;;;5053266;28;20210;-77
2022/04/04 05:08:24;;;;;;;5.40;4.43;;;2.10;1.00;;;;;;5063516;28;20278;-79
2022/04/04 05:10:53;;;;;;;3.65;3.35;;;2.10;1.00;;;;;;5057562;28;20740;-78
2022/04/04 05:13:22;;;;;;;5.88;4.68;;;2.10;1.00;;;;;;5060347;28;21157;-76
2022/04/04 05:15:51;;;;;;;6.13;4.47;;;2.20;1.00;;;;;;5059468;28;20205;-77
2022/04/04 05:18:21;;;;;;;4.72;3.95;;;2.20;1.00;;;;;;5057169;28;20196;-77
2022/04/04 05:20:49;;;;;;;3.35;2.92;;;2.10;1.00;;;;;;5061008;28;20224;-79
2022/04/04 05:23:18;;;;;;;5.20;4.60;;;2.10;1.00;;;;;;5059966;28;20962;-78
2022/04/04 05:25:46;;;;;;;5.28;3.80;;;2.50;1.00;;;;;;5055716;28;20214;-77
2022/04/04 05:28:15;;;;;;;3.10;2.80;;;2.20;1.00;;;;;;5058382;28;20281;-77
2022/04/04 05:30:43;;;;;;;4.60;3.97;;;2.20;1.00;;;;;;5061057;28;20292;-79
2022/04/04 05:33:11;;;;;;;3.70;3.00;;;2.10;1.00;;;;;;5052928;28;20947;-80
2022/04/04 05:35:41;;;;;;;2.88;2.60;;;2.10;1.00;;;;;;5053817;28;20203;-78
2022/04/04 05:38:09;;;;;;;3.13;2.72;;;2.00;1.00;;;;;;5063827;28;20233;-77
2022/04/04 05:40:38;;;;;;;6.55;3.90;;;2.00;1.00;;;;;;5059008;28;20303;-79
2022/04/04 05:43:07;;;;;;;4.18;3.08;;;2.10;1.00;;;;;;5064530;28;20970;-77
2022/04/04 05:45:37;;;;;;;4.97;3.70;;;2.10;1.00;;;;;;5052850;28;20254;-77
2022/04/04 05:48:07;;;;;;;6.35;4.00;;;2.10;1.00;;;;;;5058384;28;20211;-79
2022/04/04 05:50:36;;;;;;;3.90;3.35;;;2.10;1.00;;;;;;5053334;28;20201;-77
2022/04/04 05:53:05;;;;;;;5.10;4.00;;;2.20;1.00;;;;;;5062052;28;20759;-78
2022/04/04 05:55:33;;;;;;;4.72;3.28;;;2.00;1.00;;;;;;5060188;28;20705;-80
2022/04/04 05:58:02;;;;;;;4.63;3.65;;;2.00;1.00;;;;;;5053383;28;20203;-77
2022/04/04 06:00:30;;;;;;;4.53;3.78;;;2.00;1.00;;;;;;5060056;28;20185;-78
2022/04/04 06:02:58;;;;;;;6.38;3.58;;;2.00;1.00;;;;;;5059075;28;20211;-78
2022/04/04 06:05:26;;;;;;;3.15;2.90;;;2.10;1.00;;;;;;5054389;28;20201;-77
2022/04/04 06:07:55;;;;;;;3.10;2.80;;;2.30;1.00;;;;;;5054046;28;20217;-77
2022/04/04 06:10:24;;;;;;;5.72;3.20;;;2.40;1.00;;;;;;5062139;28;20819;-79
2022/04/04 06:12:53;;;;;;;6.13;3.60;;;2.30;1.00;;;;;;5062100;28;20220;-77
2022/04/04 06:15:21;;;;;;;5.07;3.63;;;2.30;1.00;;;;;;5063335;28;20201;-78
2022/04/04 06:17:50;;;;;;;3.60;3.30;;;2.60;1.00;;;;;;5059295;28;20193;-77
2022/04/04 06:20:18;;;;;;;3.30;3.00;;;2.80;1.00;;;;;;5059404;28;20201;-78
2022/04/04 06:22:46;;;;;;;3.65;3.35;;;3.00;1.00;;;;;;5059922;28;20196;-78
2022/04/04 06:25:14;;;;;;;6.05;3.88;;;3.10;1.00;;;;;;5062487;28;20928;-79
2022/04/04 06:27:46;;;;;;;3.63;2.80;;;3.20;1.00;;;;;;5064200;28;20216;-78
2022/04/04 06:30:15;;;;;;;5.50;3.40;;;3.20;1.00;;;;;;5066749;28;20202;-80
2022/04/04 06:32:44;;;;;;;5.78;3.20;;;3.50;1.00;;;;;;5065319;28;20556;-77
2022/04/04 06:35:13;;;;;;;4.60;3.30;;;3.50;1.00;;;;;;5062536;28;20376;-78
2022/04/04 06:37:42;;;;;;;4.10;2.70;;;3.40;1.00;;;;;;5069018;28;20207;-79
2022/04/04 06:40:11;;;;;;;4.10;2.65;;;3.60;1.00;;;;;;5069728;28;20205;-79
2022/04/04 06:42:42;;;;;;;3.17;2.88;;;3.70;1.00;;;;;;5060225;28;20210;-78
2022/04/04 06:45:14;;;;;;;5.53;4.13;;;3.70;1.00;;;;;;5063557;28;20189;-78
2022/04/04 06:47:42;;;;;;;4.88;4.03;;;3.80;1.00;;;;;;5062896;28;21474;-76
2022/04/04 06:50:13;;;;;;;4.55;3.17;;;3.90;1.00;;;;;;5061744;28;20227;-78
2022/04/04 06:52:42;;;;;;;3.63;2.80;;;4.00;1.00;;;;;;5061831;28;20319;-79
2022/04/04 06:55:31;;;;;;;5.00;3.42;;;4.00;1.00;;;;;;5063643;28;20210;-78
2022/04/04 06:58:00;;;;;;;5.25;3.28;;;4.50;1.00;;;;;;5068113;28;20189;-78
2022/04/04 07:00:29;;;;;;;4.03;3.25;;;4.20;1.00;;;;;;5064702;28;20619;-79
2022/04/04 07:02:58;;;;;;;4.43;3.33;;;4.40;1.00;;;;;;5063693;28;20261;-78
2022/04/04 07:05:27;;;;;;;4.07;3.22;;;4.40;1.00;;;;;;5058804;28;20208;-78
2022/04/04 07:07:55;;;;;;;5.18;3.28;;;4.30;1.00;;;;;;5062360;28;20214;-77
2022/04/04 07:10:24;;;;;;;4.15;3.38;;;4.30;1.00;;;;;;5060247;28;20230;-78
2022/04/04 07:12:52;;;;;;;5.00;3.88;;;4.40;1.00;;;;;;5064986;28;20186;-79
2022/04/04 07:15:20;;;;;;;3.92;2.55;;;4.50;1.00;;;;;;5063449;28;20676;-80
2022/04/04 07:17:49;;;;;;;3.10;2.85;;;4.50;1.00;;;;;;5063973;28;20199;-78
2022/04/04 07:20:19;;;;;;;5.47;4.07;;;4.50;1.00;;;;;;5065166;28;20207;-78
2022/04/04 07:22:47;;;;;;;3.60;2.90;;;4.60;1.00;;;;;;5066518;28;20196;-78
2022/04/04 07:25:16;;;;;;;3.58;2.95;;;4.70;1.00;;;;;;5055857;28;22534;-77
2022/04/04 07:27:46;;;;;;;3.22;2.92;;;4.80;1.00;;;;;;5058371;28;20249;-79
2022/04/04 07:30:17;;;;;;;3.17;2.60;;;4.90;1.00;;;;;;5061907;28;20198;-79
2022/04/04 07:32:46;;;;;;;3.13;2.80;;;5.20;1.00;;;;;;5066804;28;20234;-78
2022/04/04 07:35:17;;;;;;;3.17;2.55;;;5.00;1.00;;;;;;5059088;28;20197;-78
2022/04/04 07:37:47;;;;;;;4.10;3.70;;;5.00;1.00;;;;;;5058161;28;21895;-80
2022/04/04 07:40:17;;;;;;;3.75;2.95;;;5.00;1.00;;;;;;5060382;28;20804;-79
2022/04/04 07:42:47;;;;;;;2.92;2.70;;;4.90;1.00;;;;;;5059456;28;20198;-79
2022/04/04 07:45:17;;;;;;;6.97;2.83;;;4.90;1.00;;;;;;5062116;28;20204;-78
2022/04/04 07:47:45;;;;;;;2.30;2.08;;;4.90;1.00;;;;;;5064248;28;20207;-78
2022/04/04 07:50:16;;;;;;;4.95;2.55;;;5.30;1.00;;;;;;5060061;28;20264;-78
2022/04/04 07:52:44;;;;;;;2.50;2.30;;;5.20;1.00;;;;;;5061623;28;20195;-79
2022/04/04 07:55:13;;;;;;;4.00;2.50;;;5.40;1.00;;;;;;5059040;28;20218;-78
2022/04/04 07:57:41;;;;;;;4.00;2.78;;;5.60;1.00;;;;;;5065690;28;20199;-78
2022/04/04 08:00:12;;;;;;;4.25;2.70;;;5.80;1.00;;;;;;5065907;28;20196;-79
2022/04/04 08:02:40;;;;;;;3.88;2.63;;;6.10;1.00;;;;;;5056821;28;20217;-80
2022/04/04 08:05:10;;;;;;;3.40;2.88;;;6.30;1.00;;;;;;5058357;28;20204;-78
2022/04/04 08:07:40;;;;;;;2.67;2.13;;;6.50;1.00;;;;;;5063708;28;20295;-78
2022/04/04 08:10:09;;;;;;;3.83;2.40;;;6.60;1.00;;;;;;5066865;28;20197;-78
2022/04/04 08:12:37;;;;;;;5.85;2.90;;;6.70;1.00;;;;;;5064098;28;20239;-79
2022/04/04 08:15:06;;;;;;;3.33;2.55;;;6.60;1.00;;;;;;5060351;28;20208;-78
2022/04/04 08:17:34;;;;;;;3.47;2.90;;;6.40;1.00;;;;;;5063259;28;20703;-77
2022/04/04 08:20:03;;;;;;;6.40;2.53;;;6.30;1.00;;;;;;5056935;28;20207;-78
2022/04/04 08:22:32;;;;;;;3.65;3.05;;;6.20;1.00;;;;;;5062328;28;20220;-80
2022/04/04 08:25:01;;;;;;;3.40;3.10;;;6.20;1.00;;;;;;5064833;28;20213;-78
2022/04/04 08:27:29;;;;;;;4.00;3.33;;;6.20;1.00;;;;;;5065092;28;20205;-78
2022/04/04 08:29:57;;;;;;;4.13;2.92;;;6.10;1.00;;;;;;5065791;28;20203;-79
2022/04/04 08:32:26;;;;;;;3.88;2.35;;;6.10;1.00;;;;;;5063025;28;20278;-77
2022/04/04 08:34:54;;;;;;;3.80;2.78;;;6.20;1.00;;;;;;5057917;28;20200;-78
2022/04/04 08:37:22;;;;;;;2.95;2.75;;;6.40;1.00;;;;;;5060605;28;20660;-78
2022/04/04 08:39:51;;;;;;;4.90;3.00;;;6.50;1.00;;;;;;5055482;28;20201;-78
2022/04/04 08:42:26;;;;;;;2.60;2.40;;;6.40;1.00;;;;;;5064913;28;20216;-78
2022/04/04 08:44:56;;;;;;;3.42;2.92;;;6.20;1.00;;;;;;5059058;28;20440;-77
2022/04/04 08:47:25;;;;;;;4.68;3.03;;;6.00;1.00;;;;;;5058652;28;20224;-77
2022/04/04 08:49:55;;;;;;;5.65;2.80;;;5.80;1.00;;;;;;5058528;28;20224;-76
2022/04/04 08:52:26;;;;;;;3.90;3.35;;;5.80;1.00;;;;;;5065619;28;20215;-76
2022/04/04 08:54:55;;;;;;;5.20;3.20;;;6.00;1.00;;;;;;5051009;28;20200;-77
2022/04/04 08:57:24;;;;;;;3.70;3.00;;;6.50;1.00;;;;;;5058748;28;20195;-77
2022/04/04 08:59:53;;;;;;;3.45;2.63;;;6.20;1.00;;;;;;5059500;28;20207;-77
2022/04/04 09:02:21;;;;;;;2.80;2.60;;;6.10;1.00;;;;;;5065836;28;20219;-77
2022/04/04 09:04:52;;;;;;;4.07;3.67;;;6.00;1.00;;;;;;5061604;28;20203;-77
2022/04/04 09:07:21;;;;;;;4.47;3.00;;;6.20;1.00;;;;;;5069767;28;20192;-76
2022/04/04 09:09:52;;;;;;;4.18;3.80;;;6.30;1.00;;;;;;5071004;28;20205;-77
2022/04/04 09:12:22;;;;;;;4.28;3.90;;;6.40;1.00;;;;;;5064220;28;20727;-77
2022/04/04 09:14:54;;;;;;;3.75;3.15;;;6.60;1.00;;;;;;5059781;28;20662;-78
2022/04/04 09:17:24;;;;;;;4.53;4.03;;;6.40;1.00;;;;;;5059937;28;20386;-78
2022/04/04 09:19:52;;;;;;;3.92;3.53;;;6.40;1.00;;;;;;5061780;28;20254;-77
2022/04/04 09:22:21;;;;;;;5.22;3.97;;;6.40;1.00;;;;;;5060077;28;20610;-77
2022/04/04 09:24:52;;;;;;;3.47;2.85;;;6.30;1.00;;;;;;5062962;28;20680;-77
2022/04/04 09:27:23;;;;;;;5.28;3.50;;;6.30;1.00;;;;;;5068383;28;20205;-77
2022/04/04 09:29:55;;;;;;;4.47;3.63;;;6.40;1.00;;;;;;5065037;28;20868;-77
2022/04/04 09:32:35;;;;;;;6.45;4.05;;;6.10;1.00;;;;;;5065249;28;20228;-78
2022/04/04 09:35:08;;;;;;;4.47;3.60;;;6.50;1.00;;;;;;5066812;28;20211;-79
2022/04/04 09:37:39;;;;;;;5.67;5.13;;;6.40;1.00;;;;;;5063361;28;20229;-79
2022/04/04 09:40:10;;;;;;;4.50;3.22;;;6.40;1.00;;;;;;5061359;28;20451;-78
2022/04/04 09:42:42;;;;;;;4.03;3.72;;;6.20;1.00;;;;;;5064592;28;20226;-78
2022/04/04 09:45:15;;;;;;;4.57;4.17;;;6.20;1.00;;;;;;5057023;28;20234;-78
2022/04/04 09:47:52;;;;;;;3.58;3.28;;;6.20;1.00;;;;;;5057719;28;20483;-79
2022/04/04 09:50:31;;;;;;;4.32;3.40;;;6.40;1.00;;;;;;5072034;28;20201;-76
2022/04/04 09:53:00;;;;;;;3.88;3.50;;;6.50;1.00;;;;;;5064920;28;20651;-77
2022/04/04 09:55:30;;;;;;;4.43;3.03;;;6.70;1.00;;;;;;5059118;28;20299;-78
2022/04/04 09:57:59;;;;;;;5.28;3.75;;;6.60;1.00;;;;;;5061227;28;20187;-77
2022/04/04 10:00:29;;;;;;;3.28;3.05;;;6.30;1.00;;;;;;5061143;28;20731;-79
2022/04/04 10:02:58;;;;;;;3.40;2.70;;;6.10;1.00;;;;;;5077595;28;20252;-78
2022/04/04 10:05:27;;;;;;;4.88;4.38;;;6.30;1.00;;;;;;5067574;28;20250;-79
2022/04/04 10:07:57;;;;;;;5.20;3.83;;;6.50;1.00;;;;;;5064946;28;20201;-80
2022/04/04 10:10:27;;;;;;;4.22;3.83;;;6.80;1.00;;;;;;5067121;28;20270;-78
2022/04/04 10:12:56;;;;;;;5.35;3.70;;;6.60;1.00;;;;;;5070585;28;20250;-78
2022/04/04 10:15:30;;;;;;;3.43;3.13;;;6.60;1.00;;;;;;5066867;28;20189;-78
2022/04/04 10:17:59;;;;;;;3.58;3.28;;;6.50;1.00;;;;;;5063662;28;20981;-77
2022/04/04 10:20:27;;;;;;;3.60;3.28;;;6.60;1.00;;;;;;5068030;28;20579;-78
2022/04/04 10:22:56;;;;;;;3.53;3.22;;;6.70;1.00;;;;;;5065393;28;20529;-77
2022/04/04 10:25:27;;;;;;;3.28;2.97;;;6.70;1.00;;;;;;5059616;28;20710;-78
2022/04/04 10:27:56;;;;;;;2.60;2.40;;;6.70;1.00;;;;;;5067618;28;20197;-77
2022/04/04 10:30:40;;;;;;;3.40;2.67;;;7.00;1.00;;;;;;5064896;28;20466;-78
2022/04/04 10:33:19;;;;;;;2.43;2.23;;;7.20;1.00;;;;;;5072912;28;20458;-75
2022/04/04 10:36:01;;;;;;;2.67;2.47;;;7.60;1.00;;;;;;5066555;28;20450;-77
2022/04/04 10:38:30;;;;;;;2.63;2.43;;;7.40;1.00;;;;;;5063078;28;20223;-78
2022/04/04 10:40:59;;;;;;;3.20;2.90;;;7.60;1.00;;;;;;5067422;28;20481;-77
2022/04/04 10:43:32;;;;;;;2.83;2.50;;;7.90;1.00;;;;;;5066092;28;20953;-79
2022/04/04 10:46:04;;;;;;;2.50;2.30;;;7.70;1.00;;;;;;5061517;28;20451;-76
2022/04/04 10:48:35;;;;;;;2.97;2.50;;;7.90;1.00;;;;;;5067361;28;20480;-78
2022/04/04 10:51:17;;;;;;;4.40;3.27;;;7.90;1.00;;;;;;5058244;28;20489;-78
2022/04/04 10:53:49;;;;;;;2.50;2.30;;;7.90;1.00;;;;;;5056954;28;20497;-77
2022/04/04 10:56:19;;;;;;;3.13;2.60;;;8.10;1.00;;;;;;5060438;28;20461;-77
2022/04/04 10:58:48;;;;;;;3.07;2.87;;;8.30;1.00;;;;;;5056658;28;20458;-78
2022/04/04 11:01:20;;;;;;;2.70;2.10;;;8.40;1.00;;;;;;5055295;28;20504;-78
2022/04/04 11:04:00;;;;;;;3.63;2.90;;;8.40;1.00;;;;;;5059356;28;20460;-78
2022/04/04 11:09:36;;;;;;;3.80;3.50;;;8.50;1.00;;;;;;5052770;28;20485;-78
2022/04/04 11:12:12;;;;;;;2.27;2.17;;;8.50;1.00;;;;;;5062714;28;20545;-77
2022/04/04 11:14:55;;;;;;;3.00;2.80;;;8.40;1.00;;;;;;5052949;28;20462;-78
2022/04/04 11:17:38;;;;;;;2.80;2.60;;;8.40;1.00;;;;;;5064645;28;20478;-79
2022/04/04 11:20:16;;;;;;;4.20;2.50;;;8.60;1.00;;;;;;5068362;28;20543;-77
2022/04/04 11:22:51;;;;;;;2.83;2.50;;;8.80;1.00;;;;;;5063070;28;20892;-78
2022/04/04 11:25:22;;;;;;;2.53;2.33;;;8.70;1.00;;;;;;5060044;28;20967;-78
2022/04/04 11:27:50;;;;;;;2.67;2.47;;;8.60;1.00;;;;;;5056417;28;20470;-78
2022/04/04 11:30:21;;;;;;;3.30;3.00;;;8.50;1.00;;;;;;5054726;28;20488;-78
2022/04/04 11:32:54;;;;;;;4.13;2.40;;;8.50;1.00;;;;;;5062255;28;20540;-78
2022/04/04 11:35:27;;;;;;;2.90;2.70;;;8.40;1.00;;;;;;5063153;28;20461;-77
2022/04/04 11:37:56;;;;;;;3.00;2.60;;;8.40;1.00;;;;;;5066861;28;21326;-77
2022/04/04 11:40:29;;;;;;;3.90;2.63;;;8.50;1.00;;;;;;5061920;28;20489;-77
2022/04/04 11:42:58;;;;;;;2.60;2.40;;;8.40;1.00;;;;;;5063685;28;20514;-77
2022/04/04 11:45:30;;;;;;;3.37;2.10;;;8.30;1.00;;;;;;5064000;28;20457;-77
2022/04/04 11:48:02;;;;;;;3.80;2.60;;;8.20;1.00;;;;;;5064390;28;20471;-77
2022/04/04 11:50:34;;;;;;;4.50;3.13;;;8.40;1.00;;;;;;5067567;28;20594;-77
2022/04/04 11:53:04;;;;;;;3.63;3.33;;;8.40;1.00;;;;;;5066873;28;20455;-78
2022/04/04 11:55:36;;;;;;;3.30;3.00;;;8.20;1.00;;;;;;5061986;28;20495;-78
2022/04/04 11:58:10;;;;;;;3.70;3.10;;;8.10;1.00;;;;;;5061278;28;20442;-78
2022/04/04 12:00:42;;;;;;;4.47;3.00;;;7.90;1.00;;;;;;5066990;28;20457;-77
2022/04/04 12:03:13;;;;;;;3.03;2.73;;;8.00;1.00;;;;;;5059765;28;20443;-77
2022/04/04 12:05:42;;;;;;;2.80;2.60;;;8.10;1.00;;;;;;5062997;28;20444;-79
2022/04/04 12:08:11;;;;;;;2.83;2.63;;;8.40;1.00;;;;;;5061874;28;20958;-77
2022/04/04 12:10:42;;;;;;;7.27;2.73;;;8.50;1.00;;;;;;5061211;28;20591;-77
2022/04/04 12:13:12;;;;;;;2.93;2.73;;;8.30;1.00;;;;;;5062514;28;20451;-77
2022/04/04 12:15:44;;;;;;;3.70;2.97;;;8.10;1.00;;;;;;5058799;28;20449;-76
2022/04/04 12:18:21;;;;;;;4.77;3.33;;;8.50;1.00;;;;;;5064800;28;20440;-78
2022/04/04 12:20:50;;;;;;;3.10;2.87;;;8.50;1.00;;;;;;5060958;28;20470;-78
2022/04/04 12:26:08;;;;;;;4.17;3.40;;;8.20;1.00;;;;;;5062236;28;20456;-78
2022/04/04 12:28:39;;;;;;;3.17;2.87;;;8.40;1.00;;;;;;5060619;28;20461;-76
2022/04/04 12:31:12;;;;;;;6.03;4.27;;;8.60;1.00;;;;;;5065428;28;20484;-79
2022/04/04 12:33:43;;;;;;;4.70;3.40;;;8.60;1.00;;;;;;5064028;28;20459;-77
2022/04/04 12:36:12;;;;;;;6.17;3.40;;;8.30;1.00;;;;;;5067975;28;20532;-77
2022/04/04 12:38:42;;;;;;;6.13;3.50;;;8.50;1.00;;;;;;5060507;28;20809;-78
2022/04/04 12:41:12;;;;;;;4.33;3.20;;;8.60;1.00;;;;;;5065334;28;20463;-77
2022/04/04 12:43:42;;;;;;;4.20;3.80;;;8.90;1.00;;;;;;5069373;28;20461;-79
2022/04/04 12:46:25;;;;;;;5.83;4.30;;;8.80;1.00;;;;;;5066798;28;20447;-76
2022/04/04 12:49:11;;;;;;;3.57;3.00;;;8.60;1.00;;;;;;5063119;28;20524;-78
2022/04/04 12:51:40;;;;;;;4.83;3.67;;;8.70;1.00;;;;;;5068644;28;20520;-76
2022/04/04 12:54:09;;;;;;;4.57;4.10;;;8.90;1.00;;;;;;5064356;28;20450;-76
2022/04/04 12:56:50;;;;;;;5.70;3.77;;;8.80;1.00;;;;;;5065149;28;20453;-77
2022/04/04 12:59:19;;;;;;;3.97;3.10;;;8.80;1.00;;;;;;5059571;28;20541;-77
2022/04/04 13:02:04;;;;;;;3.50;3.17;;;8.90;1.00;;;;;;5065114;28;20506;-79
2022/04/04 13:04:35;;;;;;;3.37;3.07;;;9.00;1.00;;;;;;5065752;28;21165;-78
2022/04/04 13:07:18;;;;;;;3.20;2.90;;;9.20;1.00;;;;;;5056372;28;20449;-79
2022/04/04 13:09:51;;;;;;;4.37;3.40;;;9.20;1.00;;;;;;5056305;28;21012;-78
2022/04/04 13:12:26;;;;;;;5.17;3.40;;;9.00;1.00;;;;;;5066048;28;20503;-78
2022/04/04 13:14:55;;;;;;;4.13;3.30;;;8.90;1.00;;;;;;5067528;28;20494;-78
2022/04/04 13:17:35;;;;;;;3.20;2.90;;;9.00;1.00;;;;;;5059034;28;20545;-77
2022/04/04 13:20:09;;;;;;;4.00;3.50;;;9.00;1.00;;;;;;5068978;28;20489;-77
2022/04/04 13:22:38;;;;;;;4.60;3.43;;;9.10;1.00;;;;;;5064282;28;20475;-77
2022/04/04 13:25:07;;;;;;;3.97;3.60;;;9.20;1.00;;;;;;5070291;28;20476;-78